Time;durP1;ratioP1;P1;durP2;ratioP2;P2;SDS_P1;SDS_P2;PMS_P1;PMS_P2;Temp;Humidity;BMP_temperature;BMP_pressure;BME280_temperature;BME280_humidity;BME280_pressure;Samples;Min_cycle;Max_cycle;Signal;HPM_P1;HPM_P2
2023/01/17 00:01:47;;;;;;;1.70;1.27;;;;;;;9.41;47.97;97824.59;4929744;28;98633;-68
2023/01/17 00:09:55;;;;;;;2.35;1.10;;;;;;;9.26;48.10;97807.31;4939752;28;98085;-69
2023/01/17 00:12:23;;;;;;;2.20;1.02;;;;;;;9.32;48.11;97796.34;4927494;28;98304;-69
2023/01/17 00:14:51;;;;;;;2.97;1.35;;;;;;;9.29;47.89;97804.47;4933722;28;98354;-68
2023/01/17 00:17:19;;;;;;;3.15;1.30;;;;;;;9.30;48.44;97800.88;4940044;28;98791;-69
2023/01/17 01:34:22;;;;;;;3.35;1.85;;;;;;;8.82;50.01;97752.75;4928301;28;97786;-69
2023/01/17 01:36:49;;;;;;;1.38;1.23;;;;;;;8.78;50.14;97752.16;4931524;28;97451;-71
2023/01/17 01:39:16;;;;;;;4.18;1.58;;;;;;;8.78;49.89;97758.28;4937430;28;99446;-68
2023/01/17 01:41:43;;;;;;;3.65;1.33;;;;;;;8.87;50.06;97751.44;4925990;28;99293;-68
2023/01/17 01:44:43;;;;;;;2.85;1.38;;;;;;;8.91;49.80;97750.28;4931839;28;97061;-68
2023/01/17 01:47:13;;;;;;;2.30;1.25;;;;;;;8.93;49.68;97750.16;4925700;28;96964;-67
2023/01/17 01:49:39;;;;;;;1.75;1.23;;;;;;;8.92;49.48;97741.44;4931080;28;98901;-68
2023/01/17 01:52:08;;;;;;;3.10;1.30;;;;;;;9.06;49.37;97732.44;4931706;28;99135;-69
2023/01/17 01:54:42;;;;;;;2.42;1.30;;;;;;;8.98;49.37;97746.22;4932964;28;96885;-70
2023/01/17 01:57:13;;;;;;;5.18;1.38;;;;;;;8.92;50.08;97740.59;4924347;28;97069;-68
2023/01/17 01:59:47;;;;;;;2.40;1.20;;;;;;;8.98;49.41;97734.84;4937136;28;98967;-68
2023/01/17 02:02:14;;;;;;;1.45;1.10;;;;;;;8.95;49.53;97737.72;4931416;28;98784;-68
2023/01/17 02:04:41;;;;;;;1.92;1.40;;;;;;;8.91;49.91;97741.53;4927301;28;96707;-68
2023/01/17 02:07:12;;;;;;;3.00;1.70;;;;;;;8.88;49.79;97731.22;4927766;28;97475;-69
2023/01/17 02:09:40;;;;;;;2.10;1.27;;;;;;;8.92;49.51;97727.44;4925083;28;100310;-69
2023/01/17 02:12:07;;;;;;;2.10;1.30;;;;;;;8.81;50.19;97728.22;4921685;28;98996;-68
2023/01/17 02:14:34;;;;;;;3.22;1.23;;;;;;;8.99;49.79;97724.19;4927478;28;97562;-69
2023/01/17 02:17:15;;;;;;;3.83;1.63;;;;;;;9.09;49.08;97724.31;4930297;28;96844;-67
2023/01/17 02:20:15;;;;;;;2.13;1.23;;;;;;;9.12;48.88;97724.09;4936127;28;99355;-68
2023/01/17 02:23:08;;;;;;;2.88;1.70;;;;;;;8.94;49.48;97721.06;4924724;28;98976;-69
2023/01/17 02:25:58;;;;;;;2.67;1.60;;;;;;;8.76;49.91;97722.47;4930369;28;97394;-69
2023/01/17 02:28:43;;;;;;;4.43;1.50;;;;;;;8.81;49.93;97717.69;4923541;28;98851;-67
2023/01/17 02:31:14;;;;;;;1.33;1.00;;;;;;;8.82;49.98;97722.00;4930427;28;101129;-68
2023/01/17 02:33:50;;;;;;;2.60;1.60;;;;;;;8.71;49.95;97728.09;4924359;28;98184;-67
2023/01/17 02:36:22;;;;;;;3.20;1.43;;;;;;;8.80;49.92;97724.75;4929144;28;97541;-68
2023/01/17 02:38:52;;;;;;;2.25;1.50;;;;;;;8.76;50.02;97719.84;4930142;28;97093;-68
2023/01/17 02:41:22;;;;;;;2.28;1.48;;;;;;;8.70;50.23;97717.69;4932711;28;100160;-67
2023/01/17 02:43:50;;;;;;;2.42;1.50;;;;;;;8.82;50.36;97714.09;4930595;28;97547;-67
2023/01/17 02:46:18;;;;;;;2.38;1.52;;;;;;;8.75;50.32;97712.88;4928902;28;97112;-68
2023/01/17 02:48:45;;;;;;;4.13;2.45;;;;;;;8.77;50.28;97718.88;4930514;28;97431;-68
2023/01/17 02:51:37;;;;;;;3.03;1.65;;;;;;;9.02;49.97;97729.22;4934613;28;98816;-67
2023/01/17 02:54:18;;;;;;;2.88;1.45;;;;;;;9.11;49.44;97722.41;4931568;28;101051;-68
2023/01/17 02:56:54;;;;;;;2.38;1.30;;;;;;;9.18;49.36;97721.84;4933657;28;98475;-68
2023/01/17 02:59:38;;;;;;;2.97;1.40;;;;;;;9.38;48.56;97727.34;4929657;28;98197;-67
2023/01/17 03:02:16;;;;;;;2.85;1.30;;;;;;;9.37;48.84;97731.78;4935901;28;98829;-68
2023/01/17 03:04:49;;;;;;;2.83;1.58;;;;;;;9.46;48.89;97736.31;4927825;28;99306;-67
2023/01/17 03:07:19;;;;;;;3.65;1.55;;;;;;;9.31;49.38;97734.06;4923373;28;96696;-68
2023/01/17 03:09:52;;;;;;;8.00;1.60;;;;;;;9.45;49.29;97728.53;4929745;28;96851;-67
2023/01/17 03:12:19;;;;;;;2.42;1.42;;;;;;;9.59;49.26;97739.66;4922692;28;97520;-69
2023/01/17 03:14:45;;;;;;;3.65;1.42;;;;;;;9.48;49.86;97734.41;4938894;28;100062;-68
2023/01/17 03:17:13;;;;;;;3.20;1.70;;;;;;;9.41;50.38;97729.72;4938591;28;96724;-67
2023/01/17 03:19:40;;;;;;;3.35;1.55;;;;;;;9.28;51.45;97735.13;4928433;28;97617;-67
2023/01/17 03:22:06;;;;;;;2.03;1.52;;;;;;;9.46;51.31;97730.19;4927059;28;98912;-68
2023/01/17 03:24:33;;;;;;;2.88;1.50;;;;;;;9.44;51.08;97732.97;4925288;28;99948;-68
2023/01/17 03:26:59;;;;;;;3.53;1.70;;;;;;;9.40;51.52;97717.50;4926657;28;97459;-69
2023/01/17 03:29:25;;;;;;;2.03;1.30;;;;;;;9.30;51.68;97729.72;4932081;28;97032;-69
2023/01/17 03:31:52;;;;;;;2.47;1.67;;;;;;;9.53;52.10;97724.31;4927199;28;99248;-69
2023/01/17 03:34:20;;;;;;;2.63;1.10;;;;;;;9.50;51.80;97719.31;4937726;28;98029;-69
2023/01/17 03:36:46;;;;;;;1.00;0.80;;;;;;;9.53;51.77;97723.47;4940002;28;97085;-68
2023/01/17 03:39:12;;;;;;;2.60;0.93;;;;;;;9.51;51.99;97722.78;4931792;28;97479;-70
2023/01/17 03:41:39;;;;;;;2.88;1.00;;;;;;;9.57;51.89;97724.94;4927550;28;99031;-68
2023/01/17 03:44:05;;;;;;;3.90;1.42;;;;;;;9.59;51.96;97725.63;4933155;28;99344;-69
2023/01/17 03:46:31;;;;;;;2.53;0.85;;;;;;;9.68;52.02;97727.56;4936480;28;96793;-69
2023/01/17 03:48:58;;;;;;;3.70;1.10;;;;;;;9.74;52.35;97726.22;4933128;28;97462;-68
2023/01/17 03:51:26;;;;;;;2.20;1.38;;;;;;;9.74;52.19;97726.22;4928122;28;98031;-69
2023/01/17 03:53:52;;;;;;;1.85;0.80;;;;;;;9.72;52.60;97728.97;4925210;28;99224;-68
2023/01/17 03:56:18;;;;;;;1.30;0.88;;;;;;;9.87;52.20;97737.47;4927228;28;97390;-68
2023/01/17 03:58:45;;;;;;;0.85;0.57;;;;;;;9.78;52.06;97725.03;4933010;28;97104;-68
2023/01/17 04:01:12;;;;;;;3.80;0.90;;;;;;;9.71;52.52;97729.13;4930166;28;99232;-69
2023/01/17 04:03:39;;;;;;;1.60;0.98;;;;;;;9.83;51.81;97736.88;4931070;28;98505;-69
2023/01/17 04:06:06;;;;;;;1.23;0.80;;;;;;;9.85;52.01;97745.50;4937245;28;97282;-70
2023/01/17 04:08:33;;;;;;;1.40;0.77;;;;;;;9.80;52.08;97742.41;4929618;28;96787;-70
2023/01/17 04:11:00;;;;;;;0.85;0.60;;;;;;;9.81;52.27;97738.81;4930002;28;101024;-70
2023/01/17 04:13:26;;;;;;;1.60;0.73;;;;;;;9.83;52.36;97746.59;4925439;28;99289;-71
2023/01/17 04:15:53;;;;;;;2.28;0.75;;;;;;;9.69;52.53;97741.56;4932202;28;97042;-70
2023/01/17 04:18:21;;;;;;;1.23;0.80;;;;;;;9.70;52.97;97744.09;4932459;28;97150;-70
2023/01/17 04:20:48;;;;;;;0.70;0.50;;;;;;;9.70;52.53;97749.38;4929773;28;99278;-70
2023/01/17 04:23:14;;;;;;;0.68;0.57;;;;;;;9.42;53.56;97742.78;4941952;28;98928;-70
2023/01/17 04:25:42;;;;;;;0.52;0.50;;;;;;;9.55;53.54;97747.94;4926193;28;97581;-71
2023/01/17 04:28:10;;;;;;;0.98;0.40;;;;;;;9.56;53.60;97746.97;4931259;28;98398;-69
2023/01/17 04:30:36;;;;;;;0.70;0.50;;;;;;;9.49;54.41;97745.78;4931906;28;98041;-71
2023/01/17 04:33:03;;;;;;;1.05;0.50;;;;;;;9.68;53.76;97747.81;4935801;28;98858;-68
2023/01/17 04:35:30;;;;;;;1.98;0.45;;;;;;;9.75;53.73;97746.38;4928828;28;96869;-68
2023/01/17 04:37:57;;;;;;;0.45;0.40;;;;;;;9.74;54.13;97752.59;4932190;28;96887;-70
2023/01/17 04:40:23;;;;;;;5.53;0.60;;;;;;;9.78;54.02;97754.84;4936113;28;96915;-69
2023/01/17 04:42:51;;;;;;;0.50;0.43;;;;;;;9.93;53.26;97753.63;4927421;28;98890;-69
2023/01/17 04:45:17;;;;;;;0.50;0.50;;;;;;;9.79;53.63;97760.97;4934686;28;96991;-70
2023/01/17 04:47:44;;;;;;;1.80;0.40;;;;;;;9.85;53.37;97760.47;4930827;28;97316;-68
2023/01/17 04:50:17;;;;;;;0.47;0.40;;;;;;;9.89;54.18;97770.69;4933641;28;98826;-68
2023/01/17 04:52:46;;;;;;;0.60;0.47;;;;;;;9.90;53.69;97774.16;4934812;28;97737;-69
2023/01/17 04:55:17;;;;;;;2.08;0.20;;;;;;;9.89;54.64;97780.38;4932664;28;96837;-71
2023/01/17 04:57:47;;;;;;;1.75;0.47;;;;;;;9.83;54.89;97776.44;4939618;28;97421;-71
2023/01/17 05:00:16;;;;;;;0.68;0.32;;;;;;;9.75;55.22;97776.22;4929620;28;98267;-68
2023/01/17 05:02:42;;;;;;;0.50;0.43;;;;;;;9.60;55.66;97772.13;4927053;28;100893;-68
2023/01/17 05:05:10;;;;;;;0.77;0.60;;;;;;;9.85;55.02;97781.56;4930317;28;97325;-69
2023/01/17 05:07:36;;;;;;;0.47;0.38;;;;;;;9.88;55.03;97783.97;4931320;28;96788;-68
2023/01/17 05:10:03;;;;;;;0.50;0.50;;;;;;;9.79;54.96;97790.81;4935780;28;97581;-69
2023/01/17 05:12:29;;;;;;;0.30;0.30;;;;;;;9.71;55.54;97789.75;4933171;28;98748;-68
2023/01/17 05:14:59;;;;;;;0.30;0.30;;;;;;;9.84;55.17;97786.03;4926531;28;98967;-67
2023/01/17 05:17:27;;;;;;;0.50;0.40;;;;;;;9.70;55.87;97796.84;4931416;28;97289;-67
2023/01/17 05:19:53;;;;;;;0.40;0.35;;;;;;;9.65;56.36;97791.06;4937544;28;99275;-70
2023/01/17 05:22:19;;;;;;;2.17;0.50;;;;;;;9.81;55.86;97799.44;4926415;28;98598;-68
2023/01/17 05:24:47;;;;;;;0.40;0.40;;;;;;;9.75;56.53;97807.84;4936063;28;96879;-68
2023/01/17 05:27:14;;;;;;;0.40;0.40;;;;;;;9.86;55.98;97809.63;4932278;28;98795;-68
2023/01/17 05:29:40;;;;;;;0.40;0.30;;;;;;;10.02;55.70;97804.00;4937099;28;99376;-70
2023/01/17 05:32:07;;;;;;;0.85;0.50;;;;;;;9.70;56.14;97825.84;4932261;28;98886;-71
2023/01/17 05:34:35;;;;;;;0.55;0.52;;;;;;;9.71;56.13;97827.53;4935863;28;98141;-72
2023/01/17 05:37:01;;;;;;;0.90;0.30;;;;;;;9.73;56.21;97830.84;4934665;28;96823;-70
2023/01/17 05:39:29;;;;;;;0.57;0.40;;;;;;;9.71;55.75;97831.94;4937304;28;98856;-70
2023/01/17 05:41:56;;;;;;;0.47;0.47;;;;;;;9.59;56.06;97829.28;4932826;28;98776;-71
2023/01/17 05:44:26;;;;;;;1.23;0.50;;;;;;;9.48;56.00;97833.72;4932513;28;97278;-71
2023/01/17 05:46:53;;;;;;;0.45;0.45;;;;;;;9.29;56.69;97844.81;4931401;28;97244;-70
2023/01/17 05:49:21;;;;;;;0.70;0.55;;;;;;;9.43;56.23;97835.88;4941030;28;98893;-72
2023/01/17 05:51:49;;;;;;;0.40;0.40;;;;;;;9.30;56.55;97849.16;4935351;28;99409;-70
2023/01/17 05:54:16;;;;;;;0.60;0.52;;;;;;;9.43;56.36;97852.53;4932844;28;97658;-71
2023/01/17 05:56:42;;;;;;;0.38;0.38;;;;;;;9.34;56.57;97855.84;4936580;28;97412;-71
2023/01/17 05:59:09;;;;;;;1.63;0.70;;;;;;;9.40;55.59;97863.28;4927755;28;97327;-70
2023/01/17 06:01:35;;;;;;;0.40;0.40;;;;;;;9.43;55.82;97864.88;4934651;28;102020;-71
2023/01/17 06:04:02;;;;;;;0.45;0.45;;;;;;;9.61;54.89;97871.34;4926951;28;97819;-70
2023/01/17 06:06:28;;;;;;;2.35;0.60;;;;;;;9.48;54.89;97867.97;4936317;28;98885;-70
2023/01/17 06:08:56;;;;;;;0.73;0.60;;;;;;;9.35;55.76;97877.78;4925360;28;99507;-70
2023/01/17 06:11:22;;;;;;;0.60;0.50;;;;;;;9.45;55.70;97886.69;4925470;28;98912;-70
2023/01/17 06:13:48;;;;;;;0.65;0.60;;;;;;;9.57;55.05;97876.03;4924277;28;96948;-72
2023/01/17 06:16:15;;;;;;;2.05;0.60;;;;;;;9.77;54.76;97885.06;4926121;28;98893;-70
2023/01/17 06:18:41;;;;;;;0.55;0.52;;;;;;;9.75;54.56;97886.13;4931938;28;96847;-70
2023/01/17 06:21:08;;;;;;;0.50;0.50;;;;;;;9.51;55.08;97889.69;4924289;28;98940;-71
2023/01/17 06:23:35;;;;;;;0.85;0.68;;;;;;;9.60;55.01;97883.69;4929776;28;96801;-71
2023/01/17 06:26:04;;;;;;;0.75;0.70;;;;;;;9.65;55.09;97893.06;4927953;28;96799;-70
2023/01/17 06:28:39;;;;;;;1.45;0.70;;;;;;;9.77;54.18;97890.31;4934286;28;99425;-69
2023/01/17 06:31:13;;;;;;;0.70;0.70;;;;;;;9.67;54.78;97899.88;4935257;28;98914;-70
2023/01/17 06:33:39;;;;;;;1.20;0.70;;;;;;;9.70;54.58;97896.19;4936024;28;96849;-71
2023/01/17 06:36:07;;;;;;;0.70;0.70;;;;;;;9.54;54.28;97901.78;4932508;28;98850;-73
2023/01/17 06:38:33;;;;;;;0.85;0.80;;;;;;;9.44;55.10;97904.28;4921839;28;99047;-71
2023/01/17 06:41:05;;;;;;;0.65;0.65;;;;;;;9.52;54.86;97906.31;4930092;28;99153;-70
2023/01/17 06:43:33;;;;;;;0.85;0.60;;;;;;;9.41;55.18;97911.56;4935638;28;97506;-71
2023/01/17 06:45:59;;;;;;;0.88;0.88;;;;;;;9.48;55.33;97904.88;4929497;28;98942;-71
2023/01/17 06:48:26;;;;;;;0.60;0.60;;;;;;;9.40;55.30;97918.63;4931716;28;99030;-70
2023/01/17 06:50:52;;;;;;;0.98;0.68;;;;;;;9.37;55.46;97908.34;4926559;28;100058;-71
2023/01/17 06:53:18;;;;;;;2.75;0.82;;;;;;;9.43;55.14;97925.47;4938344;28;96727;-71
2023/01/17 06:55:45;;;;;;;0.82;0.82;;;;;;;9.44;55.21;97925.38;4929003;28;97254;-70
2023/01/17 06:58:13;;;;;;;0.90;0.80;;;;;;;9.44;54.88;97924.53;4944326;28;97533;-70
2023/01/17 07:00:39;;;;;;;0.90;0.90;;;;;;;9.42;55.39;97935.19;4932272;28;98737;-71
2023/01/17 07:03:08;;;;;;;1.10;1.00;;;;;;;9.42;55.30;97942.25;4938683;28;97246;-70
2023/01/17 07:05:35;;;;;;;1.35;1.05;;;;;;;9.36;55.54;97937.44;4921126;28;96834;-71
2023/01/17 07:08:01;;;;;;;1.08;0.98;;;;;;;9.54;54.97;97943.97;4927781;28;100078;-68
2023/01/17 07:10:28;;;;;;;1.15;1.05;;;;;;;9.32;55.35;97944.72;4926485;28;99100;-72
2023/01/17 07:12:58;;;;;;;1.10;1.00;;;;;;;9.34;55.58;97955.16;4926894;28;97269;-70
2023/01/17 07:15:26;;;;;;;1.23;0.93;;;;;;;9.43;55.22;97954.47;4933816;28;96886;-69
2023/01/17 07:17:52;;;;;;;2.25;1.40;;;;;;;9.14;55.65;97954.81;4930204;28;98395;-69
2023/01/17 07:20:19;;;;;;;3.55;1.48;;;;;;;9.30;55.49;97959.81;4921444;28;99199;-69
2023/01/17 07:22:46;;;;;;;1.48;1.30;;;;;;;9.37;55.02;97960.19;4939153;28;97198;-69
2023/01/17 07:25:12;;;;;;;1.20;1.10;;;;;;;9.31;55.20;97956.22;4930263;28;96798;-69
2023/01/17 07:27:38;;;;;;;1.30;1.02;;;;;;;9.42;54.87;97958.91;4926003;28;99065;-68
2023/01/17 07:30:06;;;;;;;1.10;1.00;;;;;;;9.46;54.66;97967.41;4928604;28;98866;-68
2023/01/17 07:32:34;;;;;;;2.05;0.90;;;;;;;9.15;55.06;97964.41;4929722;28;97748;-68
2023/01/17 07:35:00;;;;;;;1.70;1.23;;;;;;;8.93;55.66;97971.34;4930982;28;97115;-67
2023/01/17 07:37:26;;;;;;;1.70;0.90;;;;;;;8.92;55.95;97972.31;4934471;28;98894;-69
2023/01/17 07:39:53;;;;;;;0.80;0.80;;;;;;;8.97;55.75;97972.81;4928178;28;99795;-68
2023/01/17 07:42:19;;;;;;;1.20;1.10;;;;;;;9.23;55.37;97978.81;4937803;28;96779;-68
2023/01/17 07:44:46;;;;;;;1.27;1.05;;;;;;;9.16;55.00;97976.66;4929795;28;96840;-69
2023/01/17 07:47:12;;;;;;;2.35;1.88;;;;;;;9.34;54.95;97986.78;4936391;28;101249;-69
2023/01/17 07:49:40;;;;;;;2.08;1.52;;;;;;;9.41;54.98;97983.56;4933252;28;100452;-69
2023/01/17 07:52:07;;;;;;;1.30;1.20;;;;;;;9.19;55.29;97973.75;4933174;28;96635;-68
2023/01/17 07:54:33;;;;;;;2.30;0.95;;;;;;;9.06;55.77;97994.06;4930430;28;97147;-69
2023/01/17 07:57:00;;;;;;;0.88;0.88;;;;;;;9.06;55.85;97994.06;4933753;28;99318;-68
2023/01/17 07:59:27;;;;;;;2.08;0.82;;;;;;;9.15;55.64;97990.75;4928143;28;98628;-69
2023/01/17 08:01:53;;;;;;;1.23;1.15;;;;;;;9.09;55.70;97999.13;4935057;28;96870;-70
2023/01/17 08:04:20;;;;;;;3.35;1.10;;;;;;;9.43;54.76;97994.00;4929568;28;101958;-69
2023/01/17 08:06:50;;;;;;;1.13;1.02;;;;;;;9.21;54.89;98007.91;4936139;28;99168;-69
2023/01/17 08:09:16;;;;;;;1.65;1.00;;;;;;;9.28;54.97;98000.41;4926490;28;96729;-69
2023/01/17 08:11:43;;;;;;;0.90;0.90;;;;;;;9.20;55.53;98012.34;4933225;28;97130;-69
2023/01/17 08:14:09;;;;;;;1.20;1.10;;;;;;;9.31;55.19;98003.66;4926183;28;97113;-69
2023/01/17 08:16:36;;;;;;;0.85;0.85;;;;;;;9.43;54.80;98010.66;4932244;28;98865;-68
2023/01/17 08:19:03;;;;;;;2.80;1.10;;;;;;;9.44;54.29;98008.88;4933937;28;99354;-69
2023/01/17 08:21:30;;;;;;;1.48;0.82;;;;;;;9.54;54.35;98010.69;4935318;28;97140;-68
2023/01/17 08:23:57;;;;;;;0.95;0.82;;;;;;;9.39;54.28;98010.97;4942379;28;97129;-68
2023/01/17 08:26:24;;;;;;;1.10;0.88;;;;;;;9.28;54.60;98014.41;4940268;28;99259;-69
2023/01/17 08:28:56;;;;;;;0.85;0.85;;;;;;;9.23;54.92;98013.91;4934601;28;99011;-69
2023/01/17 08:31:23;;;;;;;0.82;0.80;;;;;;;9.48;54.61;98016.44;4944555;28;96948;-68
2023/01/17 08:33:49;;;;;;;1.08;0.60;;;;;;;8.95;55.36;98017.72;4933381;28;97313;-71
2023/01/17 08:36:15;;;;;;;1.02;0.80;;;;;;;9.05;55.05;98023.16;4931984;28;97731;-71
2023/01/17 08:38:44;;;;;;;1.95;0.88;;;;;;;9.27;54.70;98020.63;4941529;28;98964;-70
2023/01/17 08:41:13;;;;;;;2.28;0.90;;;;;;;9.26;54.46;98029.50;4930546;28;96694;-71
2023/01/17 08:43:39;;;;;;;0.70;0.70;;;;;;;9.48;53.74;98034.03;4932222;28;97082;-71
2023/01/17 08:46:05;;;;;;;3.35;0.98;;;;;;;9.55;53.39;98028.19;4929649;28;98913;-71
2023/01/17 08:48:32;;;;;;;1.25;0.70;;;;;;;9.37;53.64;98024.28;4929676;28;99365;-72
2023/01/17 08:51:00;;;;;;;0.80;0.70;;;;;;;9.50;53.43;98026.88;4939088;28;97738;-72
2023/01/17 08:53:27;;;;;;;1.08;0.60;;;;;;;9.50;52.59;98029.50;4937789;28;97124;-71
2023/01/17 08:55:57;;;;;;;2.67;1.00;;;;;;;9.47;52.92;98032.34;4925904;28;99533;-71
2023/01/17 08:58:26;;;;;;;1.73;0.60;;;;;;;9.39;53.01;98043.44;4932467;28;98935;-72
2023/01/17 09:00:52;;;;;;;1.02;0.50;;;;;;;9.44;52.91;98043.13;4931888;28;96981;-70
2023/01/17 09:03:19;;;;;;;1.15;0.75;;;;;;;9.37;52.78;98042.75;4925008;28;99858;-71
2023/01/17 09:05:45;;;;;;;0.55;0.52;;;;;;;8.93;53.68;98055.63;4928123;28;98811;-72
2023/01/17 09:08:11;;;;;;;3.13;0.60;;;;;;;9.07;53.55;98050.22;4933491;28;98841;-72
2023/01/17 09:10:38;;;;;;;1.88;0.50;;;;;;;9.36;52.96;98058.66;4933220;28;97092;-72
2023/01/17 09:13:05;;;;;;;1.92;0.80;;;;;;;9.34;52.95;98058.75;4939099;28;96923;-73
2023/01/17 09:15:33;;;;;;;0.65;0.60;;;;;;;9.25;53.06;98066.50;4936229;28;98191;-72
2023/01/17 09:18:00;;;;;;;0.47;0.47;;;;;;;9.22;53.03;98062.28;4937122;28;98934;-70
2023/01/17 09:20:29;;;;;;;0.75;0.40;;;;;;;8.96;52.98;98058.06;4933725;28;96816;-71
2023/01/17 09:22:55;;;;;;;1.15;0.45;;;;;;;8.98;53.42;98072.81;4935370;28;97646;-69
2023/01/17 09:25:21;;;;;;;0.68;0.40;;;;;;;9.25;52.67;98071.78;4932854;28;99099;-72
2023/01/17 09:27:49;;;;;;;0.50;0.50;;;;;;;9.25;52.07;98077.06;4940976;28;99341;-70
2023/01/17 09:30:16;;;;;;;0.63;0.30;;;;;;;9.14;52.53;98088.34;4936376;28;97046;-72
2023/01/17 09:32:44;;;;;;;0.50;0.50;;;;;;;9.45;52.04;98089.63;4937768;28;96851;-73
2023/01/17 09:35:10;;;;;;;0.65;0.40;;;;;;;9.59;51.11;98095.56;4933323;28;98821;-72
2023/01/17 09:37:37;;;;;;;0.70;0.45;;;;;;;9.47;51.54;98101.72;4934438;28;98808;-71
2023/01/17 09:40:04;;;;;;;0.40;0.40;;;;;;;9.37;51.72;98107.78;4932804;28;96856;-71
2023/01/17 09:42:34;;;;;;;0.20;0.20;;;;;;;9.11;52.50;98109.66;4935083;28;97266;-71
2023/01/17 09:45:01;;;;;;;0.40;0.30;;;;;;;8.98;52.95;98112.31;4940982;28;99091;-71
2023/01/17 09:47:34;;;;;;;1.75;0.52;;;;;;;9.04;52.65;98111.88;4934542;28;99386;-71
2023/01/17 09:50:16;;;;;;;0.43;0.40;;;;;;;9.31;52.80;98124.88;4945627;28;97554;-71
2023/01/17 09:52:43;;;;;;;0.45;0.40;;;;;;;9.18;52.53;98135.47;4928507;28;96728;-72
2023/01/17 09:55:14;;;;;;;1.63;0.55;;;;;;;9.39;51.81;98129.56;4937291;28;101737;-73
2023/01/17 09:57:51;;;;;;;2.63;0.25;;;;;;;9.11;52.66;98139.47;4937648;28;99458;-71
2023/01/17 10:00:31;;;;;;;0.10;0.10;;;;;;;8.82;53.57;98147.72;4939987;28;96751;-69
2023/01/17 10:03:14;;;;;;;0.43;0.30;;;;;;;9.09;53.04;98148.44;4933300;28;96791;-69
2023/01/17 10:05:58;;;;;;;0.82;0.30;;;;;;;9.41;52.35;98151.41;4934519;28;98910;-69
2023/01/17 10:08:40;;;;;;;0.47;0.30;;;;;;;9.22;52.79;98159.78;4937846;28;99176;-68
2023/01/17 10:11:26;;;;;;;1.23;0.50;;;;;;;8.94;53.48;98163.50;4934759;28;97112;-69
2023/01/17 10:14:06;;;;;;;0.17;0.15;;;;;;;8.94;53.83;98175.81;4935676;28;97032;-69
2023/01/17 10:16:44;;;;;;;0.30;0.30;;;;;;;9.15;53.62;98182.25;4925333;28;99043;-68
2023/01/17 10:19:18;;;;;;;0.13;0.13;;;;;;;9.50;52.95;98171.84;4933196;28;100616;-69
2023/01/17 10:22:01;;;;;;;0.45;0.38;;;;;;;9.25;53.00;98178.03;4931174;28;96771;-68
2023/01/17 10:24:51;;;;;;;3.40;0.30;;;;;;;9.25;52.85;98191.19;4934412;28;97220;-70
2023/01/17 10:27:21;;;;;;;1.65;0.30;;;;;;;9.41;52.31;98194.41;4919312;28;99292;-69
2023/01/17 10:29:50;;;;;;;0.52;0.30;;;;;;;8.94;52.99;98187.22;4935008;28;99451;-67
2023/01/17 10:32:17;;;;;;;0.90;0.30;;;;;;;9.22;52.67;98193.19;4938905;28;96834;-69
2023/01/17 10:34:48;;;;;;;0.55;0.20;;;;;;;9.42;52.22;98200.53;4929806;28;97394;-69
2023/01/17 10:37:22;;;;;;;2.13;0.25;;;;;;;9.65;51.09;98205.00;4933873;28;98877;-68
2023/01/17 10:39:51;;;;;;;0.80;0.30;;;;;;;9.55;50.93;98201.34;4930623;28;99350;-68
2023/01/17 10:42:23;;;;;;;0.50;0.20;;;;;;;8.56;53.01;98215.31;4946287;28;96770;-68
2023/01/17 10:44:55;;;;;;;0.30;0.10;;;;;;;8.34;53.51;98216.72;4936392;28;97393;-68
2023/01/17 10:47:23;;;;;;;0.68;0.28;;;;;;;8.50;53.61;98221.84;4937285;28;98982;-68
2023/01/17 10:49:53;;;;;;;0.52;0.28;;;;;;;8.68;52.71;98219.75;4931380;28;99231;-70
2023/01/17 10:52:33;;;;;;;1.92;0.22;;;;;;;8.88;52.64;98221.88;4936461;28;97741;-69
2023/01/17 10:55:15;;;;;;;0.45;0.30;;;;;;;8.77;53.06;98224.41;4930287;28;97154;-69
2023/01/17 10:57:44;;;;;;;0.50;0.30;;;;;;;8.91;53.30;98231.34;4931732;28;98925;-69
2023/01/17 11:00:37;;;;;;;0.88;0.25;;;;;;;9.02;52.96;98229.66;4938890;28;98898;-70
2023/01/17 11:03:04;;;;;;;0.35;0.30;;;;;;;8.70;53.19;98228.38;4930268;28;97534;-68
2023/01/17 11:05:32;;;;;;;0.80;0.30;;;;;;;8.97;52.85;98239.69;4932970;28;97264;-69
2023/01/17 11:08:02;;;;;;;0.45;0.30;;;;;;;9.25;52.27;98240.44;4933832;28;99074;-69
2023/01/17 11:10:39;;;;;;;1.60;0.40;;;;;;;8.88;53.20;98248.19;4938396;28;99912;-69
2023/01/17 11:13:16;;;;;;;0.77;0.30;;;;;;;8.87;53.58;98257.03;4934074;28;96795;-71
2023/01/17 11:15:48;;;;;;;1.05;0.30;;;;;;;8.59;54.16;98251.97;4932839;28;98717;-68
2023/01/17 11:18:16;;;;;;;0.60;0.20;;;;;;;8.42;55.20;98255.69;4938193;28;99007;-69
2023/01/17 11:20:43;;;;;;;1.42;0.45;;;;;;;8.16;57.24;98254.75;4925183;28;98958;-70
2023/01/17 11:23:16;;;;;;;0.52;0.30;;;;;;;8.02;57.69;98267.94;4943595;28;97643;-69
2023/01/17 11:25:56;;;;;;;2.90;0.28;;;;;;;8.32;57.11;98280.94;4936588;28;96754;-68
2023/01/17 11:28:29;;;;;;;0.40;0.10;;;;;;;7.29;60.97;98275.19;4937398;28;100940;-69
2023/01/17 11:30:57;;;;;;;1.10;0.30;;;;;;;7.80;60.59;98272.91;4932070;28;97512;-69
2023/01/17 11:33:52;;;;;;;5.35;0.47;;;;;;;7.76;60.08;98280.13;4926155;28;97213;-70
2023/01/17 11:36:20;;;;;;;0.85;0.20;;;;;;;8.22;58.71;98285.06;4928617;28;97572;-69
2023/01/17 11:39:01;;;;;;;1.13;0.38;;;;;;;7.73;59.36;98284.75;4930697;28;97888;-69
2023/01/17 11:41:34;;;;;;;1.17;0.10;;;;;;;7.07;61.51;98283.53;4935077;28;101688;-69
2023/01/17 11:44:01;;;;;;;1.20;0.40;;;;;;;7.11;62.57;98299.94;4939451;28;97368;-68
2023/01/17 11:46:28;;;;;;;1.02;0.20;;;;;;;7.18;62.67;98296.84;4934865;28;97310;-69
2023/01/17 11:48:58;;;;;;;0.82;0.32;;;;;;;7.32;62.59;98295.16;4936036;28;98902;-69
2023/01/17 11:51:28;;;;;;;2.15;0.40;;;;;;;8.10;61.14;98306.91;4936185;28;99101;-70
2023/01/17 11:54:03;;;;;;;3.97;0.82;;;;;;;8.02;61.51;98300.34;4931748;28;97427;-69
2023/01/17 11:56:33;;;;;;;1.25;0.40;;;;;;;8.57;60.22;98314.38;4930941;28;97178;-69
2023/01/17 11:59:32;;;;;;;1.67;0.60;;;;;;;8.86;59.30;98297.50;4937852;28;99025;-69
2023/01/17 12:02:34;;;;;;;2.00;0.35;;;;;;;9.07;58.67;98303.09;4865291;28;100277;-70
2023/01/17 12:05:19;;;;;;;1.15;0.50;;;;;;;9.19;58.21;98297.84;4935486;28;97200;-70
2023/01/17 12:07:57;;;;;;;2.72;0.70;;;;;;;9.09;58.08;98304.69;4929950;28;96765;-70
2023/01/17 12:10:29;;;;;;;1.58;0.63;;;;;;;9.03;58.33;98305.13;4929844;28;98498;-69
2023/01/17 12:18:57;;;;;;;0.90;0.55;;;;;;;9.02;58.58;98302.56;4935387;28;96791;-70
2023/01/17 12:21:35;;;;;;;0.50;0.40;;;;;;;9.37;57.92;98306.28;4928751;28;98998;-69
2023/01/17 12:24:26;;;;;;;2.28;0.80;;;;;;;9.90;56.30;98307.81;4934483;28;98885;-70
2023/01/17 12:27:02;;;;;;;1.50;0.50;;;;;;;9.41;56.39;98305.13;4925981;28;96917;-69
2023/01/17 12:29:47;;;;;;;0.93;0.60;;;;;;;9.79;56.61;98318.25;4937202;28;96725;-68
2023/01/17 12:32:31;;;;;;;1.42;0.63;;;;;;;9.80;55.34;98311.19;4932668;28;98965;-71
2023/01/17 12:35:01;;;;;;;1.15;0.57;;;;;;;9.67;54.85;98316.50;4930641;28;99402;-72
2023/01/17 12:37:35;;;;;;;1.85;0.43;;;;;;;9.33;55.20;98330.31;4933284;28;96808;-71
2023/01/17 12:40:08;;;;;;;0.70;0.40;;;;;;;9.02;54.79;98327.13;4932363;28;97522;-74
2023/01/17 12:42:39;;;;;;;2.17;0.50;;;;;;;8.98;55.58;98319.56;4931098;28;101866;-73
2023/01/17 12:45:13;;;;;;;3.03;0.60;;;;;;;9.33;54.84;98328.53;4941541;28;99151;-71
2023/01/17 12:47:43;;;;;;;0.98;0.50;;;;;;;9.34;53.88;98340.75;4932199;28;96778;-72
2023/01/17 12:50:23;;;;;;;2.20;0.50;;;;;;;9.20;53.16;98336.41;4932473;28;96757;-72
2023/01/17 12:52:59;;;;;;;1.13;0.47;;;;;;;9.51;52.59;98340.47;4931920;28;99615;-72
2023/01/17 12:55:36;;;;;;;3.25;0.70;;;;;;;9.33;52.68;98346.97;4934935;28;99068;-73
2023/01/17 12:58:06;;;;;;;3.83;0.60;;;;;;;9.19;52.38;98342.63;4936571;28;97164;-72
2023/01/17 13:00:38;;;;;;;2.72;0.70;;;;;;;9.46;51.18;98345.19;4938419;28;97282;-72
2023/01/17 13:03:13;;;;;;;3.03;0.50;;;;;;;9.74;51.27;98346.75;4934255;28;99025;-72
2023/01/17 13:05:41;;;;;;;7.85;0.70;;;;;;;9.89;50.66;98358.03;4930251;28;99068;-73
2023/01/17 13:08:28;;;;;;;3.53;0.57;;;;;;;9.67;49.74;98358.69;4933389;28;97520;-72
2023/01/17 13:10:59;;;;;;;3.92;0.43;;;;;;;9.61;50.73;98359.09;4934379;28;97379;-73
2023/01/17 13:13:27;;;;;;;4.47;0.50;;;;;;;9.43;50.12;98361.22;4935122;28;102260;-71
2023/01/17 13:16:00;;;;;;;2.83;0.70;;;;;;;9.45;50.45;98369.03;4934423;28;98286;-72
2023/01/17 13:18:28;;;;;;;3.08;0.52;;;;;;;9.81;50.00;98370.91;4933235;28;96780;-71
2023/01/17 13:21:29;;;;;;;4.45;0.73;;;;;;;9.78;49.69;98366.69;4935290;28;96825;-71
2023/01/17 13:24:25;;;;;;;1.83;0.88;;;;;;;9.79;48.86;98365.72;4936307;28;98924;-75